Hauptseite
METAR-TAF:

METAR-TAF

Flughäfen :

Iwojima, Japan

Breite: 24-47N, Länge: 141-19E, Höhe: 113 m

Beobachtung

Neuester Wetterbericht von vor 39 Minuten, um 04:00 UTC
Wind 16 kt aus Südwest, variierte zwischen Süd/Südwest und West
Temperatur 25°C
Luftfeuchtigkeit 65%
Luftdruck 1013 hPa
Sichtweite 10 km oder mehr
Leicht bewölkt in der Höhe von 2000 ft

METAR: RJAW 020400Z 23016KT 200V260 9999 FEW020 25/18 Q1013 RMK 1CU020 A2991 WIND BY EQPT/25

Zeit: 13:39 (04:39 UTC)


TAF: fehlend

Wetterbeobachtungen und Prognosen von mehr als 4000 Flughäfen (METAR und TAF Bericht).

Die verfügbaren Stationen werden durch gelbe und rote Markierungen auf der Karte dargestellt.

Führen Sie die Maus auf sie, um den Namen der Station zu sehen.

Darauf klicken, um die Beobachtung von Wetterbeobachtungen und Prognosen zu sehen.

Um die Karte zu ändern : klicken Sie auf den grünen Tasten mit einem schwarzen Kreuz Zum Vergrößern, auf den grünen Button mit einem Gedankenstrich zu verkleinern, oder auf die grünen Pfeile für benachbarte Karten.


METAR-TAF: